If you wish to contribute or participate in the discussions about articles you are invited to join SKYbrary as a registered user

 Actions

Béziers-Vias Airport

From SKYbrary Wiki

LFMU
Airport
ICAO: LFMU – IATA: BZR
Summary
Name Béziers-Vias Airport
Region Europe
Territory France FR.gif
Location , Languedoc-Roussillon
Serving Beziers
Elevation 17.069 m
56 ft
56 ft17.069 m
Type medium airport
Coordinates 43° 19' 24.68" N, 3° 21' 14.05" E
Runways
Designator Length Width Surface ROPS
10/28 1820 m5,971.129 ft
30 m98.425 ft
ASP /


METAR
Observation LFMU 250130Z AUTO 28010KT CAVOK 15/13 Q1014
Station Beziers / Vias
Date/Time 25 May 2019 01:30:00
Wind direction 280°
Wind speed 10 kts
Lowest cloud amount clouds and visibility OK
Temperature 15°C
Dew point 13°C
Humidity 87%
QNH 1014 hPa
Weather condition n/a